Latest Weather Observations for Bourke

IDN60801

Issued at 9:35 pm EST Thursday 21 August 2014 (issued every 30 minutes, with the page automatically refreshed every 10 minutes)

About weather observations | Map of weather stations | Latest weather observations for NSW | Other Formats
Station Details ID: 048245 Name: BOURKE AIRPORT AWS Lat: -30.04 Lon: 145.95 Height: 107.3 m
Data from the previous 72 hours. | See also: Recent months at Bourke
Date/Time
EST
Temp
°C
App
Temp
°C
Dew
Point
Rel
Hum
%
Delta-T
°C
Wind Press
QNH
hPa
Press
MSL
hPa
Rain
since 9 am
mm
Dir
 
Spd
km/h
Gust
km/h
Spd
kts
Gust
kts
21/09:30pm 14.6 13.6 11.0 79 1.9 SE 7 9 4 5 1024.2 - 0.4
21/09:00pm 14.6 12.8 11.0 79 1.9 SSE 11 13 6 7 1024.0 1024.0 0.4
21/08:30pm 14.1 13.4 11.3 83 1.5 SSW 6 7 3 4 1023.6 - 0.4
21/08:00pm 15.3 13.4 9.2 67 3.1 E 9 11 5 6 1023.6 1023.6 0.2
21/07:30pm 15.6 13.5 8.1 61 3.8 SSE 9 9 5 5 1023.1 - 0.0
21/07:00pm 16.1 13.8 7.3 56 4.4 SE 9 9 5 5 1022.7 1022.7 0.0
21/06:30pm 16.5 14.5 6.9 53 4.8 SE 7 9 4 5 1022.4 - 0.0
21/06:00pm 16.8 14.2 6.3 50 5.1 ESE 9 11 5 6 1022.0 1022.0 0.0
21/05:30pm 19.0 15.0 6.5 44 6.3 ESE 17 22 9 12 1021.7 - 0.0
21/05:00pm 20.0 16.8 6.7 42 6.7 E 13 19 7 10 1021.4 1021.4 0.0
21/04:30pm 20.2 17.0 6.9 42 6.8 SE 13 26 7 14 1021.1 - 0.0
21/04:00pm 20.5 16.8 6.4 40 7.1 E 15 20 8 11 1021.0 1021.0 0.0
21/03:30pm 20.8 16.7 6.4 39 7.3 E 17 24 9 13 1020.9 - 0.0
21/03:00pm 20.7 17.4 6.6 40 7.1 E 13 17 7 9 1021.1 1021.1 0.0
21/02:30pm 20.2 16.9 6.5 41 6.9 E 13 20 7 11 1021.4 - 0.0
21/02:00pm 18.6 14.5 6.1 44 6.2 ESE 17 24 9 13 1021.7 1021.7 0.0
21/01:30pm 18.9 14.8 6.4 44 6.2 ESE 17 24 9 13 1022.1 - 0.0
21/01:00pm 18.5 15.2 6.4 45 6.0 E 13 20 7 11 1022.5 1022.5 0.0
21/12:30pm 18.1 15.2 6.6 47 5.7 E 11 20 6 11 1023.1 - 0.0
21/12:00pm 17.3 14.0 6.2 48 5.4 ESE 13 24 7 13 1023.6 1023.6 0.0
21/11:30am 17.3 14.0 6.5 49 5.4 ESE 13 20 7 11 1023.9 - 0.0
21/11:00am 16.6 12.9 6.4 51 5.0 E 15 20 8 11 1024.2 1024.2 0.0
21/10:30am 15.8 12.1 6.3 53 4.6 ESE 15 22 8 12 1024.5 - 0.0
21/10:00am 14.9 10.8 6.0 55 4.3 E 17 22 9 12 1024.6 1024.6 0.0
21/09:30am 14.1 9.3 5.7 57 4.0 E 20 28 11 15 1024.7 - 0.0
21/09:00am 12.5 9.2 6.3 66 2.9 SE 13 17 7 9 1024.8 1024.8 0.0
21/08:30am 10.9 7.5 5.7 70 2.4 SE 13 17 7 9 1024.6 - 0.0
21/08:00am 9.1 5.6 5.3 77 1.7 SSE 13 17 7 9 1024.3 1024.3 0.0
21/07:30am 7.5 4.2 4.8 83 1.2 SSE 11 13 6 7 1024.1 - 0.0
21/07:00am 5.7 2.7 3.9 88 0.8 SSE 9 11 5 6 1023.9 1023.9 0.0
21/06:30am 5.8 2.7 3.8 87 0.8 SSE 9 11 5 6 1023.5 - 0.0
21/06:00am 5.6 2.5 3.8 88 0.8 S 9 11 5 6 1023.2 1023.2 0.0
21/05:30am 5.8 2.7 3.6 86 0.9 SSE 9 9 5 5 1023.1 - 0.0
21/05:00am 6.5 3.9 4.2 85 1.0 SSE 7 9 4 5 1023.2 1023.2 0.0
21/04:30am 6.8 4.2 4.1 83 1.2 SSE 7 9 4 5 1023.2 - 0.0
21/04:00am 7.1 4.5 4.1 81 1.3 SSE 7 9 4 5 1023.0 1023.0 0.0
21/03:30am 7.5 4.5 3.9 78 1.6 SSE 9 11 5 6 1022.8 - 0.0
21/03:00am 8.2 4.9 4.4 77 1.7 SSE 11 13 6 7 1022.9 1022.9 0.0
21/02:30am 8.4 5.1 4.4 76 1.8 SSE 11 13 6 7 1023.0 - 0.0
21/02:00am 8.6 5.0 5.0 78 1.6 SSE 13 15 7 8 1023.2 1023.2 0.0
21/01:30am 8.3 5.4 4.5 77 1.7 SSE 9 11 5 6 1023.3 - 0.0
21/01:00am 8.9 5.6 4.7 75 1.9 SSE 11 13 6 7 1023.4 1023.4 0.0
21/12:30am 9.4 6.5 4.4 71 2.2 SSE 9 11 5 6 1023.4 - 0.0
21/12:00am 9.9 6.6 4.7 70 2.3 SSE 11 13 6 7 1023.5 1023.5 0.0
 
Date/Time
EST
Temp
°C
App
Temp
°C
Dew
Point
Rel
Hum
%
Delta-T
°C
Wind Press
QNH
hPa
Press
MSL
hPa
Rain
since 9 am
mm
Dir
 
Spd
km/h
Gust
km/h
Spd
kts
Gust
kts
20/11:30pm 10.1 6.5 5.1 71 2.3 SE 13 13 7 7 1023.7 - 0.0
20/11:00pm 10.6 7.7 4.9 68 2.6 SSE 9 11 5 6 1023.8 1023.8 0.0
20/10:30pm 11.8 8.6 5.0 63 3.1 SSE 11 13 6 7 1024.0 - 0.0
20/10:00pm 12.3 9.1 5.0 61 3.4 SE 11 17 6 9 1024.0 1024.0 0.0
20/09:30pm 12.8 9.2 5.2 60 3.5 SE 13 19 7 10 1023.9 - 0.0
20/09:00pm 12.1 8.9 5.3 63 3.1 SE 11 13 6 7 1023.8 1023.8 0.0
20/08:30pm 12.2 9.4 5.1 62 3.3 SE 9 13 5 7 1023.7 - 0.0
20/08:00pm 12.6 9.7 4.6 58 3.7 SSE 9 9 5 5 1023.3 1023.3 0.0
20/07:30pm 13.6 10.7 4.5 54 4.2 SE 9 11 5 6 1022.8 - 0.0
20/07:00pm 14.1 11.2 4.7 53 4.4 ESE 9 11 5 6 1022.4 1022.4 0.0
20/06:30pm 15.3 12.7 4.4 48 5.1 SE 7 9 4 5 1022.0 - 0.0
20/06:00pm 16.3 13.1 3.0 41 6.1 SE 9 11 5 6 1021.8 1021.8 0.0
20/05:30pm 18.5 14.1 2.8 35 7.3 SE 15 20 8 11 1021.5 - 0.0
20/05:00pm 19.5 15.5 2.8 33 7.8 SE 13 17 7 9 1021.1 1021.1 0.0
20/04:30pm 20.1 15.4 3.3 33 8.0 S 17 26 9 14 1020.9 - 0.0
20/04:00pm 20.2 14.9 3.0 32 8.1 SSE 20 28 11 15 1020.9 1020.9 0.0
20/03:30pm 20.5 15.4 3.3 32 8.2 SSE 19 26 10 14 1020.9 - 0.0
20/03:00pm 18.8 14.1 3.0 35 7.4 SE 17 24 9 13 1021.0 1021.0 0.0
20/02:30pm 19.0 14.6 4.7 39 6.9 SE 17 20 9 11 1021.1 - 0.0
20/02:00pm 19.8 15.4 4.7 37 7.3 ESE 17 28 9 15 1021.2 1021.2 0.0
20/01:30pm 19.8 15.2 3.9 35 7.6 SE 17 24 9 13 1021.6 - 0.0
20/01:00pm 19.6 14.8 4.5 37 7.3 E 19 32 10 17 1021.9 1021.9 0.0
20/12:30pm 19.5 14.8 5.2 39 7.0 SE 19 26 10 14 1022.4 - 0.0
20/12:00pm 18.9 14.5 7.4 47 5.8 SE 20 30 11 16 1022.9 1022.9 0.0
20/11:30am 18.1 14.6 7.2 49 5.5 E 15 22 8 12 1023.6 - 0.0
20/11:00am 17.8 13.5 7.0 49 5.4 E 19 24 10 13 1024.0 1024.0 0.0
20/10:30am 16.9 12.5 7.3 53 4.8 NE 20 28 11 15 1024.3 - 0.0
20/10:00am 16.2 11.5 7.7 57 4.3 ENE 22 28 12 15 1024.3 1024.3 0.0
20/09:30am 15.3 11.6 8.1 62 3.6 ENE 17 22 9 12 1024.2 - 0.0
20/09:00am 13.6 10.5 8.7 72 2.5 E 15 19 8 10 1024.0 1024.0 0.0
20/08:30am 11.8 9.3 8.3 79 1.7 ESE 11 17 6 9 1023.9 - 0.0
20/08:00am 10.3 8.1 7.9 85 1.2 SE 9 11 5 6 1023.5 1023.5 0.0
20/07:30am 9.1 7.2 7.7 91 0.7 S 7 11 4 6 1023.1 - 0.0
20/07:00am 8.3 5.9 7.1 92 0.6 S 9 11 5 6 1022.8 1022.8 0.0
20/06:30am 8.3 5.2 7.4 94 0.4 S 13 15 7 8 1022.1 - 0.0
20/06:00am 7.7 5.3 7.0 95 0.3 S 9 11 5 6 1021.8 1021.8 0.0
20/05:30am 7.3 4.8 6.6 95 0.3 SSW 9 11 5 6 1021.7 - 0.0
20/05:00am 7.4 5.3 6.5 94 0.4 SSW 7 9 4 5 1021.5 1021.5 0.0
20/04:30am 7.4 5.1 5.9 90 0.7 S 7 9 4 5 1021.3 - 0.0
20/04:00am 8.6 6.2 7.1 90 0.7 S 9 11 5 6 1021.1 1021.1 0.0
20/03:30am 8.9 6.5 7.2 89 0.8 S 9 11 5 6 1021.1 - 0.0
20/03:00am 9.6 7.4 7.9 89 0.8 S 9 11 5 6 1021.2 1021.2 0.0
20/02:30am 9.8 7.6 7.9 88 0.9 S 9 11 5 6 1021.2 - 0.0
20/02:00am 10.3 8.1 7.9 85 1.2 S 9 11 5 6 1021.3 1021.3 0.0
20/01:30am 10.6 8.5 8.2 85 1.2 S 9 11 5 6 1021.2 - 0.0
20/01:00am 10.5 8.4 8.1 85 1.2 S 9 13 5 7 1021.1 1021.1 0.0
20/12:30am 10.9 8.8 8.3 84 1.3 S 9 11 5 6 1021.3 - 0.0
20/12:00am 11.2 8.7 8.4 83 1.4 SSW 11 11 6 6 1021.4 1021.4 0.0
 
Date/Time
EST
Temp
°C
App
Temp
°C
Dew
Point
Rel
Hum
%
Delta-T
°C
Wind Press
QNH
hPa
Press
MSL
hPa
Rain
since 9 am
mm
Dir
 
Spd
km/h
Gust
km/h
Spd
kts
Gust
kts
19/11:30pm 11.7 9.7 8.6 81 1.5 SSW 9 11 5 6 1021.4 - 0.0
19/11:00pm 12.4 10.4 8.7 78 1.8 SSW 9 11 5 6 1021.3 1021.3 0.0
19/10:30pm 13.1 11.2 9.2 77 2.0 SSW 9 11 5 6 1021.4 - 0.0
19/10:00pm 13.3 12.0 9.2 76 2.1 SSW 6 7 3 4 1021.4 1021.4 0.0
19/09:30pm 13.8 12.0 9.3 74 2.3 SW 9 11 5 6 1021.2 - 0.0
19/09:00pm 14.4 12.5 9.0 70 2.8 SW 9 11 5 6 1021.1 1021.1 0.0
19/08:30pm 15.2 12.1 8.9 66 3.2 SSW 15 19 8 10 1021.0 - 0.0
19/08:00pm 15.6 12.9 8.8 64 3.5 S 13 19 7 10 1020.9 1020.9 0.0
19/07:30pm 15.1 12.5 9.2 68 3.0 SSW 13 15 7 8 1020.7 - 0.0
19/07:00pm 13.8 12.1 8.2 69 2.8 SSW 7 9 4 5 1020.4 1020.4 0.0
19/06:30pm 14.7 12.6 8.2 65 3.3 SW 9 13 5 7 1019.9 - 0.0
19/06:00pm 16.4 13.6 8.4 59 4.1 SW 13 20 7 11 1019.5 1019.5 0.0
19/05:30pm 17.4 14.1 8.0 54 4.8 SW 15 24 8 13 1019.3 - 0.0
19/05:00pm 17.8 13.7 7.8 52 5.1 SW 19 26 10 14 1019.1 1019.2 0.0
19/04:30pm 18.8 15.6 8.5 51 5.4 SW 15 20 8 11 1018.8 - 0.0
19/04:00pm 18.2 15.2 7.6 50 5.4 SW 13 20 7 11 1018.6 1018.6 0.0
19/03:30pm 18.1 14.7 7.8 51 5.3 SW 15 20 8 11 1018.6 - 0.0
19/03:00pm 19.0 15.9 7.4 47 5.9 SSW 13 22 7 12 1018.5 1018.5 0.0
19/02:30pm 18.7 15.3 7.5 48 5.7 SW 15 22 8 12 1018.6 - 0.0
19/02:00pm 18.8 15.7 8.7 52 5.3 S 15 22 8 12 1018.7 1018.7 0.0
19/01:30pm 18.4 15.5 9.5 56 4.7 SSW 15 24 8 13 1018.8 - 0.0
19/01:00pm 17.3 13.7 8.4 56 4.6 S 17 26 9 14 1019.0 1019.1 0.0
19/12:30pm 17.2 13.7 8.9 58 4.3 S 17 22 9 12 1019.4 - 0.0
19/12:00pm 16.5 13.5 9.2 62 3.8 SSW 15 26 8 14 1020.0 1020.0 0.0
19/11:30am 15.6 12.8 8.6 63 3.6 SW 13 26 7 14 1020.3 - 0.0
19/11:00am 15.0 11.9 8.7 66 3.2 SSW 15 22 8 12 1020.7 1020.7 0.0
19/10:30am 14.2 11.4 8.6 69 2.8 SSW 13 22 7 12 1020.8 - 0.0
19/10:00am 13.2 10.0 8.3 72 2.4 SSW 15 20 8 11 1020.9 1020.9 0.0
19/09:30am 12.2 8.9 7.9 75 2.1 SW 15 24 8 13 1020.9 - 0.0
19/09:00am 11.4 8.0 7.5 77 1.9 SW 15 20 8 11 1020.9 1020.9 0.2
19/08:30am 11.0 7.6 7.7 80 1.6 SW 15 20 8 11 1020.6 - 0.2
19/08:00am 9.9 6.4 7.0 82 1.4 WSW 15 20 8 11 1020.2 1020.2 0.2
19/07:30am 9.1 5.4 6.5 84 1.2 WSW 15 20 8 11 1019.8 - 0.2
19/07:00am 8.2 5.2 6.2 87 0.9 W 11 15 6 8 1019.4 1019.4 0.2
19/06:30am 8.4 5.0 6.0 85 1.1 W 13 19 7 10 1018.9 - 0.2
19/06:00am 8.8 5.4 6.1 83 1.2 W 13 20 7 11 1018.7 1018.7 0.2
19/05:30am 9.1 5.0 6.2 82 1.3 WSW 17 22 9 12 1018.6 - 0.2
19/05:00am 9.3 5.5 6.0 80 1.5 WSW 15 20 8 11 1018.3 1018.3 0.2
19/04:30am 9.6 6.2 6.1 79 1.6 WSW 13 17 7 9 1018.0 - 0.2
19/04:00am 9.7 6.4 6.2 79 1.6 WSW 13 20 7 11 1017.8 1017.8 0.2
19/03:30am 10.1 6.4 6.4 78 1.7 WSW 15 22 8 12 1017.9 - 0.2
19/03:00am 10.4 6.7 6.5 77 1.8 WSW 15 24 8 13 1018.0 1018.0 0.2
19/02:30am 10.9 7.7 6.8 76 2.0 WSW 13 22 7 12 1018.1 - 0.2
19/02:00am 11.6 8.1 7.1 74 2.2 WSW 15 22 8 12 1018.3 1018.3 0.2
19/01:30am 12.2 8.3 7.1 71 2.5 WSW 17 28 9 15 1018.4 - 0.2
19/01:00am 12.6 9.2 7.7 72 2.4 WSW 15 20 8 11 1018.5 1018.5 0.2
19/12:30am 12.7 8.9 7.6 71 2.5 WSW 17 26 9 14 1018.5 - 0.2
19/12:00am 12.7 9.7 7.6 71 2.5 W 13 20 7 11 1018.6 1018.6 0.2
 
Date/Time
EST
Temp
°C
App
Temp
°C
Dew
Point
Rel
Hum
%
Delta-T
°C
Wind Press
QNH
hPa
Press
MSL
hPa
Rain
since 9 am
mm
Dir
 
Spd
km/h
Gust
km/h
Spd
kts
Gust
kts
18/11:30pm 12.7 9.7 7.6 71 2.5 WSW 13 22 7 12 1018.7 - 0.2
18/11:00pm 12.7 9.7 7.8 72 2.4 WSW 13 20 7 11 1018.8 1018.8 0.2
18/10:30pm 12.9 10.0 8.0 72 2.4 WSW 13 20 7 11 1018.9 - 0.2
18/10:00pm 13.2 10.2 7.6 69 2.8 W 13 20 7 11 1018.9 1018.9 0.2

Other Formats:

Comma delimited format used in spreadsheet applications
http://www.bom.gov.au/fwo/IDN60801/IDN60801.94703.axf

JavaScript Object Notation format (JSON) in row-major order
http://www.bom.gov.au/fwo/IDN60801/IDN60801.94703.json